createdAt,value
2022-11-25T00:01:17.326Z,62.87
2022-11-25T00:03:45.612Z,62.98
2022-11-25T00:06:14.363Z,62.87
2022-11-25T00:08:42.965Z,62.30
2022-11-25T00:11:11.115Z,62.20
2022-11-25T00:13:38.503Z,61.70
2022-11-25T00:16:08.514Z,60.92
2022-11-25T00:18:36.514Z,61.63
2022-11-25T00:21:11.844Z,61.33
2022-11-25T00:23:39.326Z,61.25
2022-11-25T00:26:14.840Z,61.70
2022-11-25T00:28:45.844Z,62.00
2022-11-25T00:31:27.599Z,61.82
2022-11-25T00:33:55.165Z,61.85
2022-11-25T00:36:26.446Z,62.06
2022-11-25T00:38:58.905Z,61.76
2022-11-25T00:41:46.024Z,61.77
2022-11-25T00:44:34.864Z,62.20
2022-11-25T00:47:13.708Z,62.27
2022-11-25T00:49:46.403Z,61.98
2022-11-25T00:52:16.065Z,61.70
2022-11-25T00:54:45.064Z,61.37
2022-11-25T00:57:12.979Z,61.46
2022-11-25T00:59:40.783Z,61.58
2022-11-25T01:02:08.310Z,61.90
2022-11-25T01:04:35.908Z,61.56
2022-11-25T01:07:03.880Z,61.93
2022-11-25T01:09:31.759Z,61.63
2022-11-25T01:11:58.883Z,61.62
2022-11-25T01:14:26.645Z,61.72
2022-11-25T01:16:53.777Z,61.41
2022-11-25T01:19:21.323Z,61.49
2022-11-25T01:21:48.566Z,61.31
2022-11-25T01:24:16.446Z,61.47
2022-11-25T01:26:44.385Z,61.57
2022-11-25T01:29:17.752Z,61.37
2022-11-25T01:31:45.756Z,61.81
2022-11-25T01:34:15.912Z,61.98
2022-11-25T01:36:43.363Z,61.64
2022-11-25T01:39:18.883Z,61.67
2022-11-25T01:41:46.703Z,61.78
2022-11-25T01:44:19.683Z,61.54
2022-11-25T01:47:16.083Z,61.07
2022-11-25T01:49:51.932Z,61.02
2022-11-25T01:52:25.876Z,60.53
2022-11-25T01:55:02.704Z,60.67
2022-11-25T01:57:43.683Z,60.15
2022-11-25T02:00:11.423Z,59.99
2022-11-25T02:02:45.247Z,59.98
2022-11-25T02:05:16.142Z,59.92
2022-11-25T02:07:47.139Z,59.92
2022-11-25T02:10:22.742Z,60.24
2022-11-25T02:12:50.591Z,60.35
2022-11-25T02:15:17.762Z,60.62
2022-11-25T02:17:45.523Z,60.80
2022-11-25T02:20:19.185Z,60.69
2022-11-25T02:23:07.344Z,60.50
2022-11-25T02:25:40.543Z,60.32
2022-11-25T02:28:16.866Z,60.40
2022-11-25T02:30:45.682Z,60.54
2022-11-25T02:33:13.862Z,60.45
2022-11-25T02:35:43.423Z,60.68
2022-11-25T02:38:20.822Z,60.40
2022-11-25T02:40:58.942Z,60.18
2022-11-25T02:43:27.327Z,59.79
2022-11-25T02:46:01.699Z,59.67
2022-11-25T02:49:00.758Z,60.87
2022-11-25T02:51:20.943Z,61.23
2022-11-25T02:53:47.986Z,61.84
2022-11-25T02:56:17.307Z,61.45
2022-11-25T02:58:44.464Z,61.63
2022-11-25T03:01:11.929Z,61.43
2022-11-25T03:03:39.150Z,62.06
2022-11-25T03:06:07.282Z,61.71
2022-11-25T03:08:34.664Z,61.68
2022-11-25T03:11:06.690Z,61.84
2022-11-25T03:13:34.383Z,62.18
2022-11-25T03:16:02.240Z,62.00
2022-11-25T03:18:29.376Z,61.77
2022-11-25T03:20:57.183Z,61.99
2022-11-25T03:23:25.684Z,61.61
2022-11-25T03:25:54.444Z,61.56
2022-11-25T03:28:21.952Z,61.71
2022-11-25T03:30:49.062Z,61.92
2022-11-25T03:33:16.264Z,61.31
2022-11-25T03:35:43.924Z,61.63
2022-11-25T03:38:10.923Z,61.05
2022-11-25T03:40:37.962Z,61.44
2022-11-25T03:43:05.266Z,61.53
2022-11-25T03:45:32.473Z,61.71
2022-11-25T03:48:03.186Z,62.01
2022-11-25T03:50:30.223Z,61.95
2022-11-25T03:52:58.003Z,61.57
2022-11-25T03:55:25.907Z,61.80
2022-11-25T03:57:52.985Z,62.34
2022-11-25T04:00:20.451Z,61.95
2022-11-25T04:02:54.331Z,62.17
2022-11-25T04:05:21.785Z,62.21
2022-11-25T04:07:52.330Z,62.08
2022-11-25T04:10:23.509Z,62.12
2022-11-25T04:12:50.625Z,62.52
2022-11-25T04:15:25.463Z,62.05
2022-11-25T04:17:56.963Z,62.12
2022-11-25T04:20:24.564Z,62.22
2022-11-25T04:22:58.063Z,62.15
2022-11-25T04:25:25.063Z,62.01
2022-11-25T04:27:52.564Z,62.55
2022-11-25T04:30:26.466Z,62.54
2022-11-25T04:32:54.268Z,62.42
2022-11-25T04:35:21.406Z,62.21
2022-11-25T04:37:52.403Z,61.91
2022-11-25T04:40:19.523Z,61.49
2022-11-25T04:42:59.340Z,61.36
2022-11-25T04:45:45.395Z,61.44
2022-11-25T04:48:17.223Z,61.49
2022-11-25T04:50:45.584Z,61.48
2022-11-25T04:53:13.923Z,61.88
2022-11-25T04:55:41.508Z,61.57
2022-11-25T04:58:14.943Z,61.88
2022-11-25T05:00:43.051Z,62.17
2022-11-25T05:03:12.403Z,62.45
2022-11-25T05:05:39.763Z,62.57
2022-11-25T05:08:07.427Z,62.63
2022-11-25T05:10:34.752Z,63.82
2022-11-25T05:13:01.787Z,64.72
2022-11-25T05:15:30.457Z,64.34
2022-11-25T05:17:57.638Z,63.05
2022-11-25T05:20:40.907Z,62.05
2022-11-25T05:23:08.064Z,61.98
2022-11-25T05:25:35.049Z,61.63
2022-11-25T05:28:21.065Z,61.98
2022-11-25T05:30:48.352Z,62.58
2022-11-25T05:33:15.841Z,62.69
2022-11-25T05:35:43.560Z,62.61
2022-11-25T05:38:10.600Z,62.85
2022-11-25T05:40:38.432Z,62.33
2022-11-25T05:43:10.281Z,62.52
2022-11-25T05:45:40.005Z,62.83
2022-11-25T05:48:09.273Z,62.37
2022-11-25T05:50:37.451Z,62.45
2022-11-25T05:53:14.123Z,62.60
2022-11-25T05:55:41.501Z,62.36
2022-11-25T05:58:17.831Z,62.09
2022-11-25T06:00:50.227Z,61.93
2022-11-25T06:03:17.530Z,62.18
2022-11-25T06:05:45.578Z,62.41
2022-11-25T06:08:13.956Z,61.84
2022-11-25T06:10:41.326Z,61.13
2022-11-25T06:13:09.638Z,62.18
2022-11-25T06:15:42.533Z,63.11
2022-11-25T06:18:12.223Z,63.14
2022-11-25T06:20:39.758Z,63.20
2022-11-25T06:23:07.856Z,63.07
2022-11-25T06:25:37.539Z,63.56
2022-11-25T06:28:12.773Z,63.74
2022-11-25T06:30:41.439Z,63.55
2022-11-25T06:33:18.157Z,63.85
2022-11-25T06:35:48.498Z,63.87
2022-11-25T06:38:15.476Z,63.59
2022-11-25T06:40:42.523Z,63.45
2022-11-25T06:43:09.598Z,63.37
2022-11-25T06:45:36.736Z,63.28
2022-11-25T06:48:04.039Z,62.79
2022-11-25T06:50:31.045Z,62.23
2022-11-25T06:53:00.205Z,61.70
2022-11-25T06:55:27.178Z,61.55
2022-11-25T06:58:13.628Z,61.97
2022-11-25T07:00:41.301Z,62.13
2022-11-25T07:03:08.264Z,61.38
2022-11-25T07:05:35.318Z,61.34
2022-11-25T07:08:02.400Z,61.50
2022-11-25T07:10:29.410Z,61.40
2022-11-25T07:12:57.638Z,61.44
2022-11-25T07:15:24.668Z,61.13
2022-11-25T07:17:51.645Z,61.59
2022-11-25T07:20:18.839Z,61.38
2022-11-25T07:22:45.923Z,61.50
2022-11-25T07:25:13.058Z,61.08
2022-11-25T07:27:39.998Z,61.06
2022-11-25T07:30:54.824Z,60.94
2022-11-25T07:32:55.536Z,61.06
2022-11-25T07:35:22.579Z,60.72
2022-11-25T07:37:49.671Z,60.38
2022-11-25T07:40:16.738Z,60.38
2022-11-25T07:42:43.718Z,60.50
2022-11-25T07:45:10.961Z,60.80
2022-11-25T07:47:44.841Z,60.29
2022-11-25T07:50:12.078Z,60.29
2022-11-25T07:52:40.887Z,59.76
2022-11-25T07:55:08.527Z,60.29
2022-11-25T07:57:35.688Z,60.18
2022-11-25T08:00:03.040Z,60.06
2022-11-25T08:02:38.812Z,59.86
2022-11-25T08:05:06.680Z,59.60
2022-11-25T08:07:36.732Z,59.06
2022-11-25T08:10:04.460Z,59.30
2022-11-25T08:12:32.861Z,58.88
2022-11-25T08:14:59.739Z,58.63
2022-11-25T08:17:26.664Z,58.75
2022-11-25T08:19:53.738Z,57.74
2022-11-25T08:22:20.778Z,57.90
2022-11-25T08:24:47.879Z,58.17
2022-11-25T08:27:14.938Z,57.55
2022-11-25T08:29:42.161Z,57.25
2022-11-25T08:32:11.988Z,57.17
2022-11-25T08:34:39.221Z,57.44
2022-11-25T08:37:07.840Z,57.42
2022-11-25T08:39:51.670Z,57.27
2022-11-25T08:42:19.760Z,57.14
2022-11-25T08:44:51.061Z,57.04
2022-11-25T08:47:18.178Z,57.02
2022-11-25T08:49:45.585Z,56.94
2022-11-25T08:52:12.657Z,56.90
2022-11-25T08:54:39.724Z,56.80
2022-11-25T08:57:07.038Z,56.58
2022-11-25T08:59:34.844Z,56.83
2022-11-25T09:02:02.855Z,56.55
2022-11-25T09:04:29.949Z,56.31
2022-11-25T09:06:56.918Z,56.36
2022-11-25T09:09:24.000Z,55.14
2022-11-25T09:11:51.109Z,54.95
2022-11-25T09:14:18.234Z,55.16
2022-11-25T09:16:45.484Z,54.79
2022-11-25T09:19:12.626Z,54.94
2022-11-25T09:21:39.659Z,54.41
2022-11-25T09:24:06.717Z,53.22
2022-11-25T09:26:35.974Z,53.38
2022-11-25T09:29:04.119Z,53.88
2022-11-25T09:31:31.112Z,54.15
2022-11-25T09:33:58.464Z,54.10
2022-11-25T09:36:25.459Z,53.60
2022-11-25T09:38:53.306Z,53.48
2022-11-25T09:41:47.718Z,51.96
2022-11-25T09:44:54.848Z,51.47
2022-11-25T09:47:46.854Z,51.07
2022-11-25T09:50:21.338Z,47.87
2022-11-25T09:53:08.781Z,48.91
2022-11-25T09:55:45.226Z,47.84
2022-11-25T09:58:27.319Z,44.59
2022-11-25T10:00:54.478Z,45.73
2022-11-25T10:03:39.821Z,44.96
2022-11-25T10:06:20.548Z,44.19
2022-11-25T10:08:53.260Z,42.99
2022-11-25T10:11:50.177Z,41.65
2022-11-25T10:14:46.805Z,40.40
2022-11-25T10:17:40.302Z,40.60
2022-11-25T10:20:20.522Z,42.11
2022-11-25T10:22:52.358Z,42.19
2022-11-25T10:25:25.625Z,41.64
2022-11-25T10:27:59.618Z,40.25
2022-11-25T10:30:34.360Z,40.89
2022-11-25T10:33:27.620Z,40.09
2022-11-25T10:35:54.640Z,39.10
2022-11-25T10:38:39.281Z,38.81
2022-11-25T10:41:07.878Z,38.76
2022-11-25T10:43:39.677Z,38.06
2022-11-25T10:46:06.829Z,37.93
2022-11-25T10:48:56.961Z,37.09
2022-11-25T10:51:37.860Z,35.79
2022-11-25T10:54:27.617Z,36.72
2022-11-25T10:57:00.619Z,36.46
2022-11-25T10:59:31.658Z,35.86
2022-11-25T11:02:24.220Z,35.55
2022-11-25T11:05:09.698Z,35.50
2022-11-25T11:07:39.949Z,36.11
2022-11-25T11:10:20.619Z,35.87
2022-11-25T11:13:06.526Z,35.08
2022-11-25T11:15:47.532Z,35.12
2022-11-25T11:18:37.441Z,35.71
2022-11-25T11:21:07.639Z,35.91
2022-11-25T11:23:49.698Z,34.55
2022-11-25T11:26:26.165Z,34.48
2022-11-25T11:29:14.322Z,33.63
2022-11-25T11:31:48.429Z,34.09
2022-11-25T11:34:33.611Z,33.30
2022-11-25T11:37:03.498Z,33.61
2022-11-25T11:40:03.537Z,32.69
2022-11-25T11:42:36.657Z,34.01
2022-11-25T11:45:16.119Z,33.34
2022-11-25T11:48:16.624Z,32.42
2022-11-25T11:50:59.939Z,32.65
2022-11-25T11:53:45.760Z,33.08
2022-11-25T11:56:35.165Z,31.30
2022-11-25T11:59:18.057Z,32.45
2022-11-25T12:13:39.080Z,29.76
2022-11-25T12:16:16.645Z,28.75
2022-11-25T12:19:02.406Z,28.36
2022-11-25T12:21:55.261Z,26.18
2022-11-25T12:24:33.424Z,25.06
2022-11-25T12:27:05.846Z,25.47
2022-11-25T12:29:48.218Z,24.80
2022-11-25T12:32:18.458Z,23.18
2022-11-25T12:34:54.220Z,21.98
2022-11-25T12:38:05.459Z,21.07
2022-11-25T12:40:40.918Z,19.99
2022-11-25T12:43:13.580Z,19.93
2022-11-25T12:45:43.168Z,19.70
2022-11-25T12:48:13.681Z,18.55
2022-11-25T12:50:55.739Z,18.04
2022-11-25T12:53:35.218Z,16.87
2022-11-25T12:56:05.358Z,16.66
2022-11-25T12:58:57.336Z,17.34
2022-11-25T13:01:47.248Z,16.52
2022-11-25T13:05:00.466Z,17.09
2022-11-25T13:07:56.184Z,16.16
2022-11-25T13:10:28.899Z,16.19
2022-11-25T13:13:27.657Z,16.23
2022-11-25T13:15:57.613Z,17.42
2022-11-25T13:18:29.378Z,17.72
2022-11-25T13:20:57.439Z,18.52
2022-11-25T13:23:27.259Z,19.80
2022-11-25T13:26:14.781Z,20.75
2022-11-25T13:28:41.887Z,22.36
2022-11-25T13:31:14.987Z,24.09
2022-11-25T13:33:45.006Z,25.48
2022-11-25T13:36:25.299Z,26.65
2022-11-25T13:38:52.280Z,27.04
2022-11-25T13:41:25.459Z,29.56
2022-11-25T13:44:04.834Z,29.41
2022-11-25T13:46:45.155Z,30.57
2022-11-25T13:49:36.617Z,31.08
2022-11-25T13:52:17.077Z,32.02
2022-11-25T13:54:46.541Z,34.15
2022-11-25T13:57:13.548Z,34.54
2022-11-25T13:59:43.602Z,34.52
2022-11-25T14:02:29.100Z,35.02
2022-11-25T14:05:07.981Z,35.62
2022-11-25T14:08:01.159Z,35.08
2022-11-25T14:10:40.119Z,36.09
2022-11-25T14:13:23.037Z,37.48
2022-11-25T14:16:17.872Z,38.37
2022-11-25T14:19:50.700Z,38.83
2022-11-25T14:22:23.560Z,39.67
2022-11-25T14:24:55.157Z,39.59
2022-11-25T14:27:34.341Z,40.22
2022-11-25T14:30:05.918Z,41.03
2022-11-25T14:33:02.601Z,41.09
2022-11-25T14:35:52.602Z,42.34
2022-11-25T14:38:40.938Z,42.89
2022-11-25T14:41:16.601Z,42.92
2022-11-25T14:43:48.839Z,43.58
2022-11-25T14:46:17.252Z,43.97
2022-11-25T14:48:44.954Z,43.83
2022-11-25T14:51:14.140Z,44.31
2022-11-25T14:53:48.109Z,44.69
2022-11-25T14:56:22.300Z,45.17
2022-11-25T14:58:52.644Z,45.21
2022-11-25T15:01:32.791Z,45.61
2022-11-25T15:04:02.938Z,45.30
2022-11-25T15:06:39.245Z,45.79
2022-11-25T15:09:23.898Z,45.63
2022-11-25T15:12:13.037Z,44.81
2022-11-25T15:14:44.059Z,46.20
2022-11-25T15:17:37.565Z,46.74
2022-11-25T15:20:12.925Z,46.49
2022-11-25T15:22:45.500Z,47.31
2022-11-25T15:25:15.868Z,46.83
2022-11-25T15:27:49.298Z,47.30
2022-11-25T15:30:20.958Z,47.83
2022-11-25T15:32:49.280Z,47.58
2022-11-25T15:35:23.901Z,48.16
2022-11-25T15:37:50.917Z,48.19
2022-11-25T15:40:36.814Z,48.26
2022-11-25T15:43:25.809Z,48.93
2022-11-25T15:45:57.862Z,49.07
2022-11-25T15:48:49.740Z,48.90
2022-11-25T15:51:31.739Z,49.05
2022-11-25T15:54:17.707Z,49.34
2022-11-25T15:57:06.879Z,49.30
2022-11-25T15:59:42.858Z,49.78
2022-11-25T16:02:36.516Z,50.02
2022-11-25T16:05:15.319Z,50.59
2022-11-25T16:07:51.134Z,50.23
2022-11-25T16:10:21.918Z,50.69
2022-11-25T16:13:21.180Z,51.00
2022-11-25T16:16:07.439Z,50.96
2022-11-25T16:18:49.458Z,50.96
2022-11-25T16:21:28.100Z,51.12
2022-11-25T16:24:09.898Z,51.55
2022-11-25T16:26:40.449Z,51.22
2022-11-25T16:29:40.973Z,51.38
2022-11-25T16:32:20.839Z,51.75
2022-11-25T16:34:48.338Z,51.27
2022-11-25T16:37:15.468Z,51.42
2022-11-25T16:39:42.577Z,51.00
2022-11-25T16:42:20.981Z,51.62
2022-11-25T16:44:50.910Z,51.78
2022-11-25T16:47:20.486Z,51.90
2022-11-25T16:49:47.778Z,51.69
2022-11-25T16:52:15.318Z,51.92
2022-11-25T16:54:42.429Z,51.92
2022-11-25T16:57:17.018Z,51.94
2022-11-25T16:59:45.682Z,51.71
2022-11-25T17:02:21.899Z,51.89
2022-11-25T17:04:50.347Z,52.34
2022-11-25T17:07:33.639Z,52.01
2022-11-25T17:10:01.089Z,52.40
2022-11-25T17:12:32.260Z,52.18
2022-11-25T17:15:00.945Z,52.76
2022-11-25T17:17:28.785Z,52.38
2022-11-25T17:19:55.903Z,52.71
2022-11-25T17:22:25.460Z,52.66
2022-11-25T17:24:52.583Z,53.04
2022-11-25T17:27:29.922Z,53.14
2022-11-25T17:29:58.917Z,52.81
2022-11-25T17:32:26.587Z,52.92
2022-11-25T17:34:53.772Z,53.39
2022-11-25T17:37:25.365Z,53.40
2022-11-25T17:39:53.813Z,53.11
2022-11-25T17:42:32.294Z,53.43
2022-11-25T17:45:00.127Z,52.99
2022-11-25T17:47:27.219Z,53.22
2022-11-25T17:49:54.949Z,52.82
2022-11-25T17:52:22.166Z,52.76
2022-11-25T17:54:49.406Z,53.40
2022-11-25T17:57:21.417Z,53.01
2022-11-25T17:59:49.220Z,54.40
2022-11-25T18:02:21.340Z,54.73
2022-11-25T18:04:49.147Z,55.03
2022-11-25T18:07:17.187Z,54.98
2022-11-25T18:09:44.662Z,55.42
2022-11-25T18:12:31.099Z,55.74
2022-11-25T18:14:58.268Z,55.69
2022-11-25T18:17:25.360Z,55.49
2022-11-25T18:19:55.577Z,56.39
2022-11-25T18:22:24.383Z,56.40
2022-11-25T18:24:52.780Z,55.45
2022-11-25T18:27:28.840Z,56.58
2022-11-25T18:29:56.802Z,57.12
2022-11-25T18:32:25.381Z,56.11
2022-11-25T18:34:52.863Z,56.42
2022-11-25T18:37:19.999Z,56.43
2022-11-25T18:39:47.293Z,56.97
2022-11-25T18:42:27.053Z,57.22
2022-11-25T18:44:56.202Z,57.30
2022-11-25T18:47:23.752Z,56.87
2022-11-25T18:49:55.532Z,56.96
2022-11-25T18:52:24.638Z,56.91
2022-11-25T18:54:51.622Z,57.24
2022-11-25T18:57:19.556Z,56.87
2022-11-25T18:59:55.941Z,56.98
2022-11-25T19:02:35.099Z,56.91
2022-11-25T19:05:03.042Z,57.03
2022-11-25T19:07:30.028Z,57.32
2022-11-25T19:09:57.102Z,57.60
2022-11-25T19:12:24.639Z,57.25
2022-11-25T19:14:52.879Z,57.39
2022-11-25T19:17:21.891Z,57.70
2022-11-25T19:19:48.981Z,57.63
2022-11-25T19:22:17.913Z,57.86
2022-11-25T19:24:46.327Z,57.67
2022-11-25T19:27:20.187Z,58.16
2022-11-25T19:29:48.141Z,57.95
2022-11-25T19:32:24.460Z,58.15
2022-11-25T19:34:55.128Z,58.06
2022-11-25T19:37:23.147Z,57.79
2022-11-25T19:39:52.359Z,57.86
2022-11-25T19:42:19.699Z,57.46
2022-11-25T19:44:47.279Z,57.65
2022-11-25T19:47:19.929Z,57.46
2022-11-25T19:49:47.642Z,57.15
2022-11-25T19:52:31.329Z,57.15
2022-11-25T19:54:58.380Z,57.13
2022-11-25T19:57:25.599Z,57.24
2022-11-25T19:59:52.700Z,57.10
2022-11-25T20:02:22.381Z,57.16
2022-11-25T20:04:52.958Z,57.21
2022-11-25T20:07:21.363Z,57.43
2022-11-25T20:09:49.579Z,57.52
2022-11-25T20:12:19.318Z,57.60
2022-11-25T20:14:46.763Z,57.58
2022-11-25T20:17:33.125Z,57.78
2022-11-25T20:20:06.561Z,57.67
2022-11-25T20:22:37.939Z,58.06
2022-11-25T20:25:07.742Z,57.84
2022-11-25T20:27:34.838Z,58.04
2022-11-25T20:30:01.819Z,57.67
2022-11-25T20:32:31.298Z,57.96
2022-11-25T20:34:59.260Z,57.87
2022-11-25T20:37:30.100Z,57.94
2022-11-25T20:40:00.288Z,57.59
2022-11-25T20:42:27.667Z,57.62
2022-11-25T20:44:57.698Z,57.59
2022-11-25T20:47:26.512Z,57.49
2022-11-25T20:49:54.099Z,57.33
2022-11-25T20:52:33.046Z,57.43
2022-11-25T20:55:02.058Z,57.44
2022-11-25T20:57:29.320Z,57.78
2022-11-25T20:59:56.286Z,57.42
2022-11-25T21:02:23.467Z,57.59
2022-11-25T21:04:50.522Z,58.00
2022-11-25T21:07:20.613Z,57.79
2022-11-25T21:09:47.738Z,57.66
2022-11-25T21:12:19.271Z,57.54
2022-11-25T21:14:47.646Z,57.79
2022-11-25T21:17:14.866Z,57.96
2022-11-25T21:19:41.858Z,57.92
2022-11-25T21:22:14.854Z,58.42
2022-11-25T21:24:42.921Z,58.39
2022-11-25T21:27:15.708Z,58.45
2022-11-25T21:29:45.405Z,58.60
2022-11-25T21:32:23.664Z,59.11
2022-11-25T21:34:50.860Z,58.91
2022-11-25T21:37:25.919Z,58.49
2022-11-25T21:39:53.060Z,58.82
2022-11-25T21:42:21.582Z,58.97
2022-11-25T21:44:50.271Z,58.56
2022-11-25T21:47:22.559Z,58.90
2022-11-25T21:49:50.578Z,58.41
2022-11-25T21:52:18.677Z,58.73
2022-11-25T21:54:46.385Z,58.75
2022-11-25T21:57:21.720Z,58.78
2022-11-25T21:59:49.082Z,58.66
2022-11-25T22:02:19.380Z,58.83
2022-11-25T22:04:46.858Z,58.91
2022-11-25T22:07:14.752Z,58.51
2022-11-25T22:09:42.646Z,58.56
2022-11-25T22:12:30.847Z,58.57
2022-11-25T22:14:59.677Z,58.69
2022-11-25T22:17:27.159Z,58.66
2022-11-25T22:19:54.238Z,58.63
2022-11-25T22:22:21.542Z,58.88
2022-11-25T22:24:48.585Z,58.62
2022-11-25T22:27:25.284Z,58.42
2022-11-25T22:29:53.303Z,57.85
2022-11-25T22:32:20.725Z,58.10
2022-11-25T22:34:47.921Z,58.24
2022-11-25T22:37:21.040Z,58.49
2022-11-25T22:39:48.458Z,57.91
2022-11-25T22:42:27.927Z,58.02
2022-11-25T22:44:57.615Z,57.96
2022-11-25T22:47:38.161Z,58.79
2022-11-25T22:50:30.218Z,58.45
2022-11-25T22:52:59.259Z,58.45
2022-11-25T22:55:28.985Z,58.44
2022-11-25T22:57:59.000Z,58.07
2022-11-25T23:00:56.577Z,57.78
2022-11-25T23:03:27.218Z,58.57
2022-11-25T23:05:54.548Z,58.04
2022-11-25T23:08:24.797Z,58.11
2022-11-25T23:10:52.638Z,57.93
2022-11-25T23:13:23.404Z,58.24
2022-11-25T23:15:59.035Z,57.71
2022-11-25T23:18:38.945Z,58.03
2022-11-25T23:21:14.378Z,57.92
2022-11-25T23:23:41.478Z,57.99
2022-11-25T23:26:11.327Z,57.59
2022-11-25T23:28:38.605Z,57.76
2022-11-25T23:31:06.039Z,57.30
2022-11-25T23:33:37.300Z,57.33
2022-11-25T23:36:26.118Z,57.93
2022-11-25T23:38:59.420Z,57.58
2022-11-25T23:41:29.446Z,57.73
2022-11-25T23:43:56.798Z,57.67
2022-11-25T23:46:26.578Z,58.04
2022-11-25T23:48:58.936Z,58.22
2022-11-25T23:51:28.521Z,58.02
2022-11-25T23:53:56.678Z,58.68
2022-11-25T23:56:26.077Z,58.74
2022-11-25T23:58:53.138Z,58.57
